Time;durP1;ratioP1;P1;durP2;ratioP2;P2;SDS_P1;SDS_P2;PMS_P1;PMS_P2;Temp;Humidity;BMP_temperature;BMP_pressure;BME280_temperature;BME280_humidity;BME280_pressure;Samples;Min_cycle;Max_cycle;Signal;HPM_P1;HPM_P2
2021/01/28 00:00:20;;;;;;;102.37;34.00;;;5.60;99.60;;;;;;5073168;28;20385;-86
2021/01/28 00:02:46;;;;;;;96.13;35.13;;;5.60;99.60;;;;;;5073086;28;20035;-87
2021/01/28 00:05:12;;;;;;;98.73;34.50;;;5.60;99.50;;;;;;5073442;28;20028;-86
2021/01/28 00:07:37;;;;;;;98.47;35.93;;;5.60;99.50;;;;;;5055157;28;20508;-86
2021/01/28 00:10:04;;;;;;;109.17;36.53;;;5.60;99.50;;;;;;5055081;28;20025;-86
2021/01/28 00:12:30;;;;;;;95.43;35.17;;;5.60;99.40;;;;;;5054041;28;20036;-86
2021/01/28 00:14:55;;;;;;;101.87;36.07;;;5.60;99.50;;;;;;5072948;28;20481;-86
2021/01/28 00:17:21;;;;;;;93.67;34.27;;;5.60;99.50;;;;;;5055075;28;20025;-86
2021/01/28 00:19:46;;;;;;;102.57;35.33;;;5.60;99.70;;;;;;5054936;28;20074;-87
2021/01/28 00:22:12;;;;;;;98.83;34.47;;;5.50;99.40;;;;;;5072823;28;20025;-86
2021/01/28 00:24:38;;;;;;;102.93;36.17;;;5.50;99.50;;;;;;5072900;28;20052;-86
2021/01/28 00:27:03;;;;;;;93.90;34.03;;;5.50;99.50;;;;;;5072830;28;20384;-86
2021/01/28 00:29:29;;;;;;;98.67;34.43;;;5.50;99.50;;;;;;5054859;28;20024;-86
2021/01/28 00:31:55;;;;;;;101.57;33.77;;;5.50;99.50;;;;;;5054912;28;20082;-86
2021/01/28 00:34:21;;;;;;;91.43;32.77;;;5.50;99.50;;;;;;5072650;28;20034;-86
2021/01/28 00:36:47;;;;;;;102.87;34.07;;;5.50;99.50;;;;;;5054735;28;20035;-86
2021/01/28 00:39:13;;;;;;;94.17;32.00;;;5.50;99.40;;;;;;5054660;28;20029;-86
2021/01/28 00:41:38;;;;;;;95.10;32.33;;;5.50;99.50;;;;;;5054758;28;20385;-86
2021/01/28 00:44:04;;;;;;;101.10;33.70;;;5.50;99.40;;;;;;5054736;28;20029;-86
2021/01/28 00:46:30;;;;;;;95.30;32.50;;;5.60;99.40;;;;;;5054452;28;20029;-86
2021/01/28 00:48:55;;;;;;;87.20;30.47;;;5.60;99.50;;;;;;5054566;28;20029;-86
2021/01/28 00:51:21;;;;;;;94.20;33.33;;;5.60;99.40;;;;;;5072396;28;20056;-86
2021/01/28 00:53:46;;;;;;;89.13;31.00;;;5.50;99.40;;;;;;5054841;28;20388;-86
2021/01/28 00:56:12;;;;;;;92.97;33.33;;;5.50;99.40;;;;;;5054436;28;20040;-87
2021/01/28 00:58:38;;;;;;;82.70;31.20;;;5.60;99.40;;;;;;5054352;28;20032;-87
2021/01/28 01:01:04;;;;;;;82.87;30.83;;;5.50;99.30;;;;;;5054432;28;20028;-86
2021/01/28 01:03:30;;;;;;;86.93;30.27;;;5.60;99.40;;;;;;5054371;28;20036;-86
2021/01/28 01:05:56;;;;;;;83.87;30.27;;;5.60;99.30;;;;;;5054300;28;20028;-86
2021/01/28 01:08:28;;;;;;;91.83;32.53;;;5.50;99.30;;;;;;5072269;28;20036;-86
2021/01/28 01:10:57;;;;;;;85.50;31.40;;;5.60;99.30;;;;;;5072143;28;20409;-86
2021/01/28 01:13:25;;;;;;;93.40;31.45;;;5.60;99.30;;;;;;5072210;28;20036;-86
2021/01/28 01:15:51;;;;;;;83.30;30.63;;;5.60;99.20;;;;;;5072123;28;20037;-86
2021/01/28 01:18:20;;;;;;;86.60;30.83;;;5.60;99.20;;;;;;5054193;28;20350;-86
2021/01/28 01:20:46;;;;;;;93.78;31.15;;;5.60;99.10;;;;;;5054153;28;20025;-86
2021/01/28 01:23:13;;;;;;;82.50;30.10;;;5.60;99.20;;;;;;5073157;28;20082;-86
2021/01/28 01:25:38;;;;;;;87.97;29.27;;;5.60;99.20;;;;;;5058317;28;20025;-86
2021/01/28 01:28:04;;;;;;;93.27;31.83;;;5.60;99.40;;;;;;5058176;28;20319;-86
2021/01/28 01:30:31;;;;;;;90.30;31.07;;;5.60;99.10;;;;;;5058233;28;20025;-86
2021/01/28 01:32:57;;;;;;;99.23;32.63;;;5.60;99.40;;;;;;5058266;28;20028;-86
2021/01/28 01:35:24;;;;;;;98.13;29.83;;;5.60;99.10;;;;;;5076008;28;20028;-86
2021/01/28 01:37:55;;;;;;;82.43;28.67;;;5.60;99.20;;;;;;5057961;28;20065;-86
2021/01/28 01:40:30;;;;;;;80.50;29.10;;;5.50;99.20;;;;;;5058119;28;20112;-86
2021/01/28 01:42:56;;;;;;;82.77;30.33;;;5.60;99.20;;;;;;5058078;28;20059;-87
2021/01/28 01:45:33;;;;;;;99.23;33.00;;;5.60;99.10;;;;;;5057957;28;20025;-86
2021/01/28 01:48:09;;;;;;;90.77;31.60;;;5.60;99.00;;;;;;5057654;28;20047;-86
2021/01/28 01:50:41;;;;;;;87.93;31.50;;;5.60;99.00;;;;;;5057794;28;20028;-86
2021/01/28 01:53:31;;;;;;;98.67;33.10;;;5.60;99.00;;;;;;5057732;28;20021;-86
2021/01/28 01:56:00;;;;;;;96.17;32.30;;;5.60;98.90;;;;;;5057605;28;20024;-86
2021/01/28 01:58:52;;;;;;;;;;;5.60;99.00;;;;;;5076021;28;20538;-86
2021/01/28 02:01:22;;;;;;;87.13;29.10;;;5.60;99.00;;;;;;5020052;28;19967;-86
2021/01/28 02:03:50;;;;;;;82.80;28.47;;;5.60;99.00;;;;;;5075539;28;20044;-86
2021/01/28 02:06:27;;;;;;;85.23;31.27;;;5.60;98.90;;;;;;5057612;28;20457;-86
2021/01/28 02:08:54;;;;;;;87.73;31.17;;;5.60;98.90;;;;;;5057803;28;20028;-86
2021/01/28 02:11:21;;;;;;;82.50;31.13;;;5.60;99.00;;;;;;5057399;28;20154;-86
2021/01/28 02:13:49;;;;;;;80.77;29.80;;;5.60;98.90;;;;;;5057449;28;20478;-86
2021/01/28 02:16:18;;;;;;;82.37;29.60;;;5.60;98.90;;;;;;5057276;28;20025;-86
2021/01/28 02:18:45;;;;;;;91.43;30.77;;;5.60;98.90;;;;;;5057278;28;20031;-86
2021/01/28 02:21:22;;;;;;;84.83;28.77;;;5.60;98.90;;;;;;5075336;28;20024;-86
2021/01/28 02:23:55;;;;;;;77.67;28.80;;;5.60;99.00;;;;;;5057161;28;20021;-86
2021/01/28 02:26:24;;;;;;;79.37;28.37;;;5.60;99.00;;;;;;5075090;28;20222;-86
2021/01/28 02:28:50;;;;;;;75.30;28.77;;;5.50;98.90;;;;;;5057100;28;20031;-86
2021/01/28 02:31:17;;;;;;;77.23;27.87;;;5.60;98.90;;;;;;5057062;28;20020;-86
2021/01/28 02:33:57;;;;;;;73.43;27.23;;;5.60;99.20;;;;;;5057056;28;20024;-87
2021/01/28 02:36:37;;;;;;;75.23;26.93;;;5.60;98.80;;;;;;5056040;28;20024;-86
2021/01/28 02:39:07;;;;;;;;;;;5.60;99.10;;;;;;5057313;28;20044;-86
2021/01/28 02:41:33;;;;;;;67.70;25.67;;;5.60;98.80;;;;;;5056861;28;19944;-87
2021/01/28 02:43:59;;;;;;;65.03;24.00;;;5.60;98.80;;;;;;5056783;28;20024;-86
2021/01/28 02:46:34;;;;;;;66.73;24.87;;;5.60;98.70;;;;;;5056861;28;20025;-86
2021/01/28 02:49:00;;;;;;;69.53;23.13;;;5.60;98.70;;;;;;5056703;28;20512;-86
2021/01/28 02:51:26;;;;;;;56.60;22.50;;;5.60;98.70;;;;;;5056765;28;20025;-86
2021/01/28 02:53:55;;;;;;;68.20;24.37;;;5.60;98.70;;;;;;5056708;28;20029;-86
2021/01/28 02:56:22;;;;;;;61.50;23.50;;;5.60;98.70;;;;;;5056452;28;20028;-86
2021/01/28 02:58:50;;;;;;;59.43;22.97;;;5.60;98.70;;;;;;5056422;28;20486;-87
2021/01/28 03:01:17;;;;;;;64.83;22.33;;;5.60;98.70;;;;;;5056452;28;20027;-86
2021/01/28 03:03:43;;;;;;;61.63;21.93;;;5.60;98.70;;;;;;5056554;28;20028;-86
2021/01/28 03:06:10;;;;;;;62.30;22.47;;;5.60;98.70;;;;;;5056508;28;20439;-86
2021/01/28 03:08:36;;;;;;;58.27;22.20;;;5.60;98.70;;;;;;5074862;28;20032;-86
2021/01/28 03:11:02;;;;;;;61.90;23.80;;;5.60;98.70;;;;;;5074345;28;20039;-86
2021/01/28 03:13:29;;;;;;;65.43;22.87;;;5.60;98.60;;;;;;5056454;28;20028;-86
2021/01/28 03:15:55;;;;;;;53.70;20.67;;;5.60;98.60;;;;;;5056072;28;20028;-86
2021/01/28 03:18:21;;;;;;;69.93;24.63;;;5.60;98.70;;;;;;5056066;28;20481;-86
2021/01/28 03:20:47;;;;;;;60.03;22.77;;;5.60;98.60;;;;;;5056182;28;20204;-86
2021/01/28 03:23:14;;;;;;;58.07;21.10;;;5.60;98.60;;;;;;5056033;28;20017;-86
2021/01/28 03:25:39;;;;;;;63.97;22.23;;;5.60;98.60;;;;;;5055880;28;20116;-86
2021/01/28 03:28:06;;;;;;;65.87;23.83;;;5.60;98.50;;;;;;5073899;28;20056;-86
2021/01/28 03:30:41;;;;;;;61.23;22.13;;;5.60;98.50;;;;;;5055897;28;20025;-86
2021/01/28 03:33:09;;;;;;;62.90;21.23;;;5.60;98.60;;;;;;5073414;28;20051;-85
2021/01/28 03:35:35;;;;;;;62.63;21.60;;;5.60;98.50;;;;;;5054871;28;20035;-86
2021/01/28 03:38:01;;;;;;;57.20;20.67;;;5.60;98.50;;;;;;5055918;28;20017;-86
2021/01/28 03:40:29;;;;;;;54.97;21.20;;;5.60;98.50;;;;;;5055653;28;20016;-86
2021/01/28 03:42:55;;;;;;;53.57;20.73;;;5.60;98.50;;;;;;5055676;28;20111;-86
2021/01/28 03:45:21;;;;;;;55.80;20.70;;;5.60;98.60;;;;;;5073630;28;20103;-86
2021/01/28 03:47:47;;;;;;;54.83;20.50;;;5.50;98.50;;;;;;5055468;28;20033;-86
2021/01/28 03:50:18;;;;;;;64.93;21.57;;;5.60;98.50;;;;;;5073565;28;20390;-86
2021/01/28 03:52:44;;;;;;;59.67;21.03;;;5.60;98.50;;;;;;5055575;28;20082;-86
2021/01/28 03:55:10;;;;;;;60.13;19.37;;;5.60;98.50;;;;;;5055446;28;20032;-86
2021/01/28 03:57:36;;;;;;;59.27;20.07;;;5.60;98.50;;;;;;5055400;28;20473;-86
2021/01/28 04:00:06;;;;;;;49.20;18.40;;;5.60;98.70;;;;;;5055410;28;20082;-86
2021/01/28 04:02:31;;;;;;;55.43;19.97;;;5.60;98.70;;;;;;5073171;28;20075;-86
2021/01/28 04:04:57;;;;;;;52.70;19.37;;;5.60;98.50;;;;;;5055332;28;20032;-86
2021/01/28 04:07:23;;;;;;;56.93;21.00;;;5.50;98.50;;;;;;5055332;28;20064;-86
2021/01/28 04:09:48;;;;;;;72.10;21.80;;;5.60;98.60;;;;;;5073128;28;20028;-86
2021/01/28 04:12:14;;;;;;;67.43;21.30;;;5.60;98.60;;;;;;5055399;28;20077;-86
2021/01/28 04:14:39;;;;;;;52.27;20.13;;;5.60;98.70;;;;;;5055183;28;20031;-86
2021/01/28 04:17:05;;;;;;;55.83;20.73;;;5.60;98.80;;;;;;5055072;28;20029;-86
2021/01/28 04:19:30;;;;;;;56.93;20.47;;;5.60;98.80;;;;;;5054929;28;20051;-86
2021/01/28 04:21:56;;;;;;;65.60;21.60;;;5.60;98.80;;;;;;5055090;28;20028;-86
2021/01/28 04:24:22;;;;;;;54.27;20.40;;;5.60;98.80;;;;;;5054932;28;20393;-87
2021/01/28 04:26:47;;;;;;;56.43;20.17;;;5.60;98.80;;;;;;5054955;28;20035;-86
2021/01/28 04:29:13;;;;;;;52.57;20.63;;;5.60;98.70;;;;;;5054813;28;20523;-86
2021/01/28 04:31:39;;;;;;;47.37;18.93;;;5.60;98.70;;;;;;5054859;28;20036;-86
2021/01/28 04:34:04;;;;;;;48.10;19.40;;;5.60;98.80;;;;;;5054956;28;20112;-86
2021/01/28 04:36:30;;;;;;;49.43;18.83;;;5.60;98.70;;;;;;5054627;28;20592;-86
2021/01/28 04:38:55;;;;;;;50.20;19.90;;;5.60;98.80;;;;;;5072719;28;20025;-86
2021/01/28 04:41:24;;;;;;;49.23;18.93;;;5.60;98.80;;;;;;5072412;28;20111;-86
2021/01/28 04:43:52;;;;;;;45.42;19.23;;;5.60;98.80;;;;;;5072503;28;20020;-86
2021/01/28 04:46:36;;;;;;;48.60;19.13;;;5.60;98.80;;;;;;5054595;28;20040;-86
2021/01/28 04:49:04;;;;;;;48.80;18.43;;;5.60;98.80;;;;;;5054598;28;20021;-86
2021/01/28 04:51:31;;;;;;;50.90;19.97;;;5.60;98.70;;;;;;5072418;28;20031;-86
2021/01/28 04:54:22;;;;;;;39.27;17.67;;;5.60;98.70;;;;;;5054407;28;20032;-86
2021/01/28 04:56:53;;;;;;;36.77;17.50;;;5.60;98.60;;;;;;5072286;28;20047;-86
2021/01/28 04:59:28;;;;;;;39.93;18.17;;;5.60;98.60;;;;;;5053752;28;20020;-86
2021/01/28 05:01:54;;;;;;;38.53;17.63;;;5.60;98.50;;;;;;5054406;28;20021;-86
2021/01/28 05:04:21;;;;;;;38.53;17.87;;;5.60;98.50;;;;;;5072340;28;20438;-86
2021/01/28 05:06:52;;;;;;;35.57;16.83;;;5.60;98.40;;;;;;5054195;28;20025;-86
2021/01/28 05:09:19;;;;;;;32.47;16.53;;;5.50;98.40;;;;;;5054348;28;20120;-86
2021/01/28 05:11:58;;;;;;;33.77;16.70;;;5.60;98.40;;;;;;5054197;28;20504;-86
2021/01/28 05:14:30;;;;;;;31.35;15.95;;;5.50;98.30;;;;;;5072116;28;20025;-86
2021/01/28 05:16:58;;;;;;;32.87;15.77;;;5.60;98.40;;;;;;5072081;28;20024;-86
2021/01/28 05:19:36;;;;;;;29.07;15.57;;;5.60;98.20;;;;;;5072043;28;20023;-86
2021/01/28 05:22:13;;;;;;;30.53;15.90;;;5.50;98.10;;;;;;5072288;28;20051;-86
2021/01/28 05:24:44;;;;;;;25.23;13.37;;;5.60;98.10;;;;;;5072086;28;20095;-86
2021/01/28 05:27:24;;;;;;;30.80;15.23;;;5.60;98.10;;;;;;5072335;28;20025;-86
2021/01/28 05:29:52;;;;;;;25.90;13.27;;;5.50;97.90;;;;;;5072065;28;20432;-86
2021/01/28 05:32:40;;;;;;;22.90;12.87;;;5.50;97.90;;;;;;5054138;28;20025;-86
2021/01/28 05:35:21;;;;;;;20.33;12.37;;;5.50;98.00;;;;;;5072148;28;20021;-86
2021/01/28 05:37:48;;;;;;;22.07;12.70;;;5.50;97.90;;;;;;5071924;28;20021;-86
2021/01/28 05:40:16;;;;;;;21.33;11.60;;;5.50;98.00;;;;;;5054025;28;20029;-86
2021/01/28 05:42:43;;;;;;;21.10;11.47;;;5.50;97.90;;;;;;5071944;28;20473;-86
2021/01/28 05:45:34;;;;;;;19.03;11.33;;;5.50;97.90;;;;;;5071986;28;20496;-86
2021/01/28 05:48:22;;;;;;;17.43;10.40;;;5.50;97.90;;;;;;5044846;28;20086;-86
2021/01/28 05:51:09;;;;;;;17.13;10.07;;;5.40;98.00;;;;;;5072496;28;20024;-86
2021/01/28 05:53:35;;;;;;;16.87;9.57;;;5.40;97.80;;;;;;5072229;28;20031;-86
2021/01/28 05:56:03;;;;;;;16.03;9.60;;;5.40;98.00;;;;;;5071905;28;20032;-86
2021/01/28 05:58:49;;;;;;;15.00;9.33;;;5.40;97.90;;;;;;5054224;28;20020;-86
2021/01/28 06:01:23;;;;;;;15.80;9.73;;;5.40;97.90;;;;;;5055155;28;20046;-87
2021/01/28 06:04:16;;;;;;;16.70;8.93;;;5.40;98.00;;;;;;5055073;28;20044;-87
2021/01/28 06:06:54;;;;;;;15.37;8.03;;;5.50;97.80;;;;;;5055160;28;20115;-87
2021/01/28 06:09:28;;;;;;;14.10;9.00;;;5.40;97.80;;;;;;5056415;28;20389;-87
2021/01/28 06:12:17;;;;;;;13.83;8.30;;;5.50;97.80;;;;;;5077552;28;20098;-86
2021/01/28 06:14:58;;;;;;;20.48;9.05;;;5.40;97.70;;;;;;5058215;28;20025;-86
2021/01/28 06:18:01;;;;;;;17.43;8.70;;;5.50;97.90;;;;;;5075514;28;20024;-86
2021/01/28 06:20:48;;;;;;;12.13;7.77;;;5.50;97.80;;;;;;5057640;28;20027;-86
2021/01/28 06:23:58;;;;;;;13.87;8.17;;;5.40;97.60;;;;;;5057675;28;20021;-86
2021/01/28 06:26:59;;;;;;;13.90;8.13;;;5.40;97.50;;;;;;5075395;28;20032;-86
2021/01/28 06:29:42;;;;;;;12.63;7.73;;;5.40;97.60;;;;;;5029473;28;20504;-86
2021/01/28 06:32:27;;;;;;;14.63;7.90;;;5.40;97.60;;;;;;5057599;28;20111;-87
2021/01/28 06:35:24;;;;;;;15.60;8.77;;;5.40;97.60;;;;;;5075092;28;20028;-86
2021/01/28 06:38:20;;;;;;;13.70;8.13;;;5.40;97.50;;;;;;5057264;28;20465;-85
2021/01/28 06:40:52;;;;;;;11.73;7.13;;;5.40;97.50;;;;;;5057222;28;20024;-87
2021/01/28 06:43:43;;;;;;;12.87;7.83;;;5.40;97.50;;;;;;5056864;28;20062;-86
2021/01/28 06:46:37;;;;;;;13.87;7.53;;;5.40;97.50;;;;;;5056284;28;20033;-86
2021/01/28 06:49:12;;;;;;;12.07;6.27;;;5.40;97.40;;;;;;5074795;28;20024;-86
2021/01/28 06:52:05;;;;;;;11.23;6.83;;;5.40;97.40;;;;;;5056744;28;20028;-86
2021/01/28 06:54:59;;;;;;;13.00;6.87;;;5.30;97.20;;;;;;5072044;28;20083;-86
2021/01/28 06:57:49;;;;;;;9.40;6.17;;;5.40;97.30;;;;;;5076946;28;20078;-86
2021/01/28 07:00:23;;;;;;;10.80;6.60;;;5.30;97.10;;;;;;5060285;28;20017;-86
2021/01/28 07:03:20;;;;;;;10.33;6.33;;;5.30;97.10;;;;;;5078749;28;20027;-86
2021/01/28 07:05:51;;;;;;;12.23;6.30;;;5.40;97.60;;;;;;5056482;28;20052;-86
2021/01/28 07:08:52;;;;;;;11.50;6.77;;;5.40;97.30;;;;;;5061772;28;20020;-86
2021/01/28 07:11:39;;;;;;;10.33;6.57;;;5.40;97.20;;;;;;5061174;28;20473;-86
2021/01/28 07:14:07;;;;;;;9.90;5.83;;;5.40;97.30;;;;;;5060694;28;20027;-85
2021/01/28 07:16:39;;;;;;;13.63;6.50;;;5.40;97.30;;;;;;5080319;28;20029;-85
2021/01/28 07:19:16;;;;;;;15.57;6.80;;;5.40;97.30;;;;;;5084873;28;20516;-85
2021/01/28 07:21:48;;;;;;;10.37;6.17;;;5.40;97.30;;;;;;5084465;28;20520;-86
2021/01/28 07:24:37;;;;;;;18.07;6.30;;;5.40;97.30;;;;;;5067299;28;20024;-86
2021/01/28 07:27:12;;;;;;;10.90;5.70;;;5.40;97.10;;;;;;5067165;28;20024;-87
2021/01/28 07:29:54;;;;;;;8.33;5.13;;;5.40;97.00;;;;;;5068186;28;20024;-85
2021/01/28 07:32:26;;;;;;;8.73;5.50;;;5.40;97.10;;;;;;5068555;28;20029;-87
2021/01/28 07:35:22;;;;;;;8.43;4.83;;;5.40;97.00;;;;;;5064615;28;20033;-85
2021/01/28 07:37:48;;;;;;;7.63;4.77;;;5.40;96.90;;;;;;5083191;28;20053;-85
2021/01/28 07:40:52;;;;;;;8.53;4.80;;;5.40;96.90;;;;;;5064578;28;20051;-86
2021/01/28 07:43:29;;;;;;;8.00;4.50;;;5.40;96.90;;;;;;5060748;28;20039;-85
2021/01/28 07:46:28;;;;;;;9.47;5.10;;;5.40;96.90;;;;;;5061426;28;20025;-85
2021/01/28 07:49:20;;;;;;;10.02;4.82;;;5.40;96.90;;;;;;5060349;28;20436;-85
2021/01/28 07:51:46;;;;;;;9.40;5.17;;;5.30;96.80;;;;;;5058831;28;20389;-86
2021/01/28 07:54:24;;;;;;;16.00;5.70;;;5.40;96.90;;;;;;5059712;28;20048;-86
2021/01/28 07:57:08;;;;;;;10.83;4.90;;;5.30;96.80;;;;;;5077643;28;20077;-85
2021/01/28 07:59:51;;;;;;;9.27;5.00;;;5.40;96.70;;;;;;5058435;28;20112;-86
2021/01/28 08:02:25;;;;;;;9.83;4.93;;;5.40;96.70;;;;;;5077327;28;20066;-85
2021/01/28 08:05:07;;;;;;;10.20;5.03;;;5.40;96.90;;;;;;5078334;28;20027;-86
2021/01/28 08:07:42;;;;;;;11.37;4.90;;;5.40;96.90;;;;;;5059909;28;20027;-85
2021/01/28 08:10:23;;;;;;;8.77;5.17;;;5.40;96.80;;;;;;5059220;28;20059;-85
2021/01/28 08:13:21;;;;;;;8.17;4.77;;;5.40;96.80;;;;;;5058937;28;20059;-85
2021/01/28 08:15:49;;;;;;;8.07;4.80;;;5.40;96.70;;;;;;5070916;28;20037;-85
2021/01/28 08:18:31;;;;;;;7.77;4.90;;;5.40;96.70;;;;;;5077045;28;20024;-85
2021/01/28 08:21:16;;;;;;;9.07;5.07;;;5.40;96.80;;;;;;5057640;28;20535;-85
2021/01/28 08:23:45;;;;;;;7.67;4.50;;;5.40;96.90;;;;;;5057608;28;20119;-86
2021/01/28 08:26:23;;;;;;;7.45;4.75;;;5.30;96.80;;;;;;5054868;28;20033;-86
2021/01/28 08:28:49;;;;;;;12.27;6.83;;;5.30;96.70;;;;;;5073247;28;20477;-86
2021/01/28 08:31:25;;;;;;;7.37;4.70;;;5.40;96.80;;;;;;5054995;28;20031;-86
2021/01/28 08:34:00;;;;;;;8.10;4.53;;;5.40;96.60;;;;;;5053997;28;20123;-85
2021/01/28 08:36:32;;;;;;;10.27;4.63;;;5.40;96.60;;;;;;5054796;28;20020;-86
2021/01/28 08:39:13;;;;;;;9.70;4.67;;;5.40;96.50;;;;;;5054727;28;20021;-86
2021/01/28 08:41:39;;;;;;;7.57;4.03;;;5.40;96.70;;;;;;5054744;28;20020;-85
2021/01/28 08:44:10;;;;;;;8.37;4.47;;;5.40;96.70;;;;;;5055100;28;20462;-85
2021/01/28 08:46:37;;;;;;;7.30;4.17;;;5.40;96.70;;;;;;5054955;28;20024;-85
2021/01/28 08:49:09;;;;;;;7.07;3.60;;;5.40;96.70;;;;;;5054702;28;20035;-85
2021/01/28 08:51:39;;;;;;;6.60;3.93;;;5.40;96.80;;;;;;5072619;28;20020;-85
2021/01/28 08:54:20;;;;;;;6.37;3.57;;;5.40;96.80;;;;;;5054590;28;20028;-85
2021/01/28 08:56:49;;;;;;;7.57;3.73;;;5.40;96.80;;;;;;5072257;28;20021;-85
2021/01/28 08:59:18;;;;;;;7.15;4.18;;;5.40;96.70;;;;;;5072471;28;20012;-86
2021/01/28 09:01:50;;;;;;;7.35;4.10;;;5.40;97.20;;;;;;5054704;28;20034;-85
2021/01/28 09:04:26;;;;;;;8.70;3.67;;;5.40;96.80;;;;;;5072523;28;20025;-85
2021/01/28 09:06:52;;;;;;;4.80;2.80;;;5.40;96.60;;;;;;5054386;28;20060;-85
2021/01/28 09:09:34;;;;;;;6.10;3.13;;;5.40;96.60;;;;;;5072234;28;20111;-85
2021/01/28 09:12:27;;;;;;;8.63;3.80;;;5.40;96.50;;;;;;5072388;28;20397;-85
2021/01/28 09:15:10;;;;;;;5.67;2.90;;;5.40;96.60;;;;;;5054342;28;20032;-85
2021/01/28 09:17:36;;;;;;;5.47;2.83;;;5.40;96.40;;;;;;5053993;28;20049;-85
2021/01/28 09:20:05;;;;;;;5.90;2.87;;;5.30;96.50;;;;;;5071519;28;20017;-85
2021/01/28 09:22:41;;;;;;;5.17;2.63;;;5.40;96.60;;;;;;5054005;28;20016;-86
2021/01/28 09:25:20;;;;;;;5.60;3.00;;;5.40;96.70;;;;;;5054289;28;20425;-85
2021/01/28 09:28:03;;;;;;;;;;;5.30;96.70;;;;;;5054204;28;20424;-85
2021/01/28 09:30:35;;;;;;;4.30;2.50;;;5.30;96.90;;;;;;5068449;28;19905;-85
2021/01/28 09:33:27;;;;;;;8.27;3.85;;;5.30;97.20;;;;;;5053741;28;20024;-85
2021/01/28 09:36:42;;;;;;;6.10;2.80;;;5.30;96.90;;;;;;5071959;28;20063;-85
2021/01/28 09:39:19;;;;;;;5.60;3.00;;;5.40;97.00;;;;;;4977277;28;20034;-86
2021/01/28 09:41:50;;;;;;;6.00;2.60;;;5.40;96.90;;;;;;5051894;28;20539;-86
2021/01/28 09:44:49;;;;;;;6.97;3.10;;;5.40;97.10;;;;;;5055014;28;20107;-85
2021/01/28 09:47:15;;;;;;;6.93;3.53;;;5.40;97.10;;;;;;5058241;28;20504;-85
2021/01/28 09:49:41;;;;;;;6.80;3.43;;;5.40;97.00;;;;;;5057133;28;20032;-86
2021/01/28 09:52:14;;;;;;;9.77;4.00;;;5.40;97.00;;;;;;5075807;28;20465;-86
2021/01/28 09:54:39;;;;;;;4.97;3.10;;;5.50;97.00;;;;;;5075681;28;20111;-85
2021/01/28 09:57:05;;;;;;;7.30;3.33;;;5.40;97.00;;;;;;5075639;28;20116;-85
2021/01/28 09:59:31;;;;;;;5.20;3.00;;;5.40;97.10;;;;;;5074801;28;20032;-85
2021/01/28 10:01:56;;;;;;;6.60;2.93;;;5.40;97.10;;;;;;5057615;28;20032;-84
2021/01/28 10:04:22;;;;;;;5.47;3.40;;;5.40;97.00;;;;;;5057643;28;20512;-85
2021/01/28 10:06:48;;;;;;;7.57;3.37;;;5.40;97.00;;;;;;5057693;28;20469;-85
2021/01/28 10:09:13;;;;;;;8.53;3.27;;;5.40;97.10;;;;;;5057119;28;20032;-85
2021/01/28 10:11:39;;;;;;;8.33;3.00;;;5.50;97.20;;;;;;5057245;28;20044;-85
2021/01/28 10:14:05;;;;;;;5.80;2.93;;;5.50;97.10;;;;;;5075375;28;20034;-85
2021/01/28 10:16:32;;;;;;;4.97;2.83;;;5.50;97.10;;;;;;5075052;28;20035;-84
2021/01/28 10:18:58;;;;;;;6.70;3.00;;;5.50;97.10;;;;;;5075243;28;20031;-85
2021/01/28 10:21:24;;;;;;;5.60;2.90;;;5.40;97.20;;;;;;5057440;28;20025;-86
2021/01/28 10:23:49;;;;;;;5.83;3.53;;;5.50;97.10;;;;;;5057445;28;20035;-85
2021/01/28 10:26:15;;;;;;;7.20;3.57;;;5.50;97.10;;;;;;5075609;28;20388;-85
2021/01/28 10:28:41;;;;;;;9.43;5.20;;;5.50;97.20;;;;;;5056924;28;20029;-85
2021/01/28 10:31:07;;;;;;;8.17;4.40;;;5.50;97.20;;;;;;5074552;28;20056;-85
2021/01/28 10:33:36;;;;;;;6.67;4.10;;;5.50;97.20;;;;;;5056949;28;20508;-85
2021/01/28 10:36:06;;;;;;;6.27;3.83;;;5.50;97.20;;;;;;5066745;28;20037;-85
2021/01/28 10:38:32;;;;;;;;;;;5.50;97.20;;;;;;5057131;28;20048;-85
2021/01/28 10:41:29;;;;;;;7.80;4.20;;;5.60;97.20;;;;;;5074788;28;20022;-85
2021/01/28 10:43:57;;;;;;;6.80;3.77;;;5.50;97.20;;;;;;5058262;28;20033;-85
2021/01/28 10:46:22;;;;;;;6.83;3.90;;;5.60;97.20;;;;;;5074577;28;20465;-85
2021/01/28 10:48:48;;;;;;;7.63;4.23;;;5.60;97.10;;;;;;5056924;28;20116;-85
2021/01/28 10:51:14;;;;;;;7.93;3.60;;;5.60;97.20;;;;;;5056668;28;20048;-86
2021/01/28 10:53:40;;;;;;;8.40;3.50;;;5.60;97.10;;;;;;5057273;28;20032;-85
2021/01/28 10:56:07;;;;;;;6.57;3.53;;;5.50;97.00;;;;;;5055999;28;20032;-86
2021/01/28 10:59:04;;;;;;;6.23;3.30;;;5.60;97.00;;;;;;5058344;28;20032;-86
2021/01/28 11:01:30;;;;;;;22.03;5.30;;;5.60;97.10;;;;;;5055332;28;20033;-85
2021/01/28 11:04:06;;;;;;;20.17;5.10;;;5.50;97.00;;;;;;5057053;28;20393;-85
2021/01/28 11:06:37;;;;;;;33.57;5.83;;;5.60;97.00;;;;;;5056587;28;20112;-85
2021/01/28 11:09:21;;;;;;;55.53;8.05;;;5.60;97.10;;;;;;5074890;28;20036;-85
2021/01/28 11:11:47;;;;;;;36.53;5.63;;;5.60;97.10;;;;;;5058554;28;20037;-85
2021/01/28 11:14:13;;;;;;;24.27;5.40;;;5.60;97.10;;;;;;5056784;28;20035;-84
2021/01/28 11:16:39;;;;;;;85.30;11.30;;;5.60;97.10;;;;;;5074549;28;20393;-85
2021/01/28 11:19:05;;;;;;;42.97;7.23;;;5.60;97.20;;;;;;5074351;28;20067;-85
2021/01/28 11:21:31;;;;;;;12.40;3.60;;;5.60;97.20;;;;;;5057095;28;20035;-86
2021/01/28 11:23:57;;;;;;;8.80;3.07;;;5.60;97.10;;;;;;5057015;28;20028;-85
2021/01/28 11:26:23;;;;;;;4.90;2.83;;;5.60;96.90;;;;;;5074289;28;20075;-85
2021/01/28 11:28:48;;;;;;;6.50;3.10;;;5.50;96.90;;;;;;5056218;28;20032;-84
2021/01/28 11:31:14;;;;;;;24.03;4.83;;;5.60;97.00;;;;;;5075196;28;20024;-85
2021/01/28 11:33:40;;;;;;;32.77;5.70;;;5.60;97.00;;;;;;5058410;28;20024;-85
2021/01/28 11:36:05;;;;;;;9.23;3.40;;;5.60;97.00;;;;;;5057303;28;20025;-85
2021/01/28 11:38:31;;;;;;;17.20;3.60;;;5.60;96.90;;;;;;5057095;28;20024;-85
2021/01/28 11:40:57;;;;;;;30.90;4.50;;;5.60;96.90;;;;;;5056232;28;20024;-85
2021/01/28 11:43:22;;;;;;;70.07;8.67;;;5.60;96.80;;;;;;5055822;28;20145;-85
2021/01/28 11:45:48;;;;;;;27.23;7.00;;;5.60;96.90;;;;;;5055698;28;20032;-85
2021/01/28 11:48:14;;;;;;;13.33;3.87;;;5.60;96.80;;;;;;5055400;28;20055;-85
2021/01/28 11:50:40;;;;;;;15.80;6.53;;;5.60;96.90;;;;;;5072956;28;20021;-85
2021/01/28 11:53:06;;;;;;;10.83;3.40;;;5.70;97.00;;;;;;5055332;28;20020;-85
2021/01/28 11:55:32;;;;;;;9.00;3.40;;;5.60;96.90;;;;;;5055272;28;20039;-85
2021/01/28 11:57:58;;;;;;;5.83;2.70;;;5.70;96.80;;;;;;5055812;28;20028;-85
2021/01/28 12:00:25;;;;;;;6.03;2.63;;;5.70;96.80;;;;;;5073205;28;20027;-85
2021/01/28 12:02:52;;;;;;;4.53;2.57;;;5.70;96.90;;;;;;5073151;28;20028;-85
2021/01/28 12:05:20;;;;;;;7.13;2.97;;;5.60;96.90;;;;;;5073097;28;20056;-85
2021/01/28 12:07:46;;;;;;;7.15;2.85;;;5.70;97.00;;;;;;5073034;28;20020;-85
2021/01/28 12:10:16;;;;;;;4.87;2.67;;;5.60;97.10;;;;;;5054712;28;20439;-85
2021/01/28 12:12:42;;;;;;;27.50;6.03;;;5.60;97.10;;;;;;5055384;28;20028;-85
2021/01/28 12:15:08;;;;;;;26.00;4.30;;;5.60;97.20;;;;;;5055397;28;20389;-85
2021/01/28 12:17:35;;;;;;;12.37;3.57;;;5.60;97.20;;;;;;5055966;28;20043;-85
2021/01/28 12:20:01;;;;;;;10.77;3.63;;;5.70;97.10;;;;;;5062502;28;20041;-85
2021/01/28 12:22:26;;;;;;;7.53;2.50;;;5.70;97.10;;;;;;5059625;28;20051;-85
2021/01/28 12:24:52;;;;;;;6.30;3.47;;;5.60;96.90;;;;;;5078265;28;20029;-85
2021/01/28 12:27:18;;;;;;;9.03;2.93;;;5.70;97.10;;;;;;5059495;28;20095;-85
2021/01/28 12:29:43;;;;;;;5.87;2.77;;;5.70;97.10;;;;;;5058701;28;20050;-85
2021/01/28 12:32:09;;;;;;;35.27;7.50;;;5.70;97.10;;;;;;5059863;28;20099;-85
2021/01/28 12:34:36;;;;;;;33.07;7.40;;;5.70;97.10;;;;;;5078232;28;20024;-84
2021/01/28 12:37:03;;;;;;;29.43;6.03;;;5.70;97.10;;;;;;5059231;28;20028;-86
2021/01/28 12:39:29;;;;;;;12.50;4.20;;;5.80;97.20;;;;;;5059328;28;20028;-86
2021/01/28 12:41:55;;;;;;;13.57;4.10;;;5.80;97.10;;;;;;5059837;28;20029;-85
2021/01/28 12:44:21;;;;;;;9.70;3.27;;;5.80;97.20;;;;;;5059653;28;20043;-86
2021/01/28 12:46:46;;;;;;;8.20;4.03;;;5.80;97.30;;;;;;5059211;28;20037;-86
2021/01/28 12:49:13;;;;;;;14.33;3.70;;;5.80;97.20;;;;;;5059779;28;20101;-86
2021/01/28 12:51:38;;;;;;;8.63;3.03;;;5.90;97.30;;;;;;5059858;28;20111;-86
2021/01/28 12:54:04;;;;;;;13.17;4.70;;;5.90;97.20;;;;;;5060408;28;20445;-86
2021/01/28 12:56:30;;;;;;;12.37;4.80;;;5.90;97.20;;;;;;5059364;28;20064;-86
2021/01/28 12:58:56;;;;;;;9.77;4.43;;;5.80;97.10;;;;;;5055727;28;20032;-85
2021/01/28 13:01:21;;;;;;;7.83;4.47;;;5.90;97.20;;;;;;5074302;28;20036;-86
2021/01/28 13:03:47;;;;;;;78.83;11.30;;;5.90;97.20;;;;;;5081773;28;20027;-86
2021/01/28 13:06:13;;;;;;;45.03;9.53;;;5.90;97.50;;;;;;5061066;28;20028;-86
2021/01/28 13:08:42;;;;;;;34.43;7.90;;;5.90;97.30;;;;;;5060922;28;20464;-86